Alegria II — 203890 — position and weather

sailwx.info

Track history (hours):
 
Tides and Currents Weather Stations Pressure Air Temp Water Temp Dewpoint Dewpoint Depression Visibility Wind Speed Wind Dir Waves Ship Positions

Alegria II

Last reported at 2017-Sep-13 13:24 UTC. Time now 2017-Sep-21 03:37 UTC.
Position N 47°36' W 002°50'.

Length 11 m.

Type: Sailing vessel. MMSI: 227203890.

Date/timePositionNaut miles runAvg speedWind from/ knotsBaromVisibWave heightAir tempDewpointWater temp
2017-Sep-13 13:24N 47°36' W 002°50'0 0.0
2017-Sep-13 13:00N 47°36' W 002°50'1 0.0
2017-Sep-12 18:21N 47°37' W 002°49'1 2.3
2017-Sep-12 17:59N 47°37' W 002°48'1 2.4
2017-Sep-12 17:30N 47°38' W 002°46'2 0.1
2017-Sep-11 08:52N 47°36' W 002°46'25 0.5
2017-Sep-09 09:55N 47°42' W 003°22'2 0.1
2017-Sep-08 14:34N 47°44' W 003°21'1 4.4
2017-Sep-08 14:27N 47°44' W 003°21'1 1.6
2017-Sep-08 13:59N 47°44' W 003°22'0 0.0
2017-Sep-08 13:31N 47°44' W 003°22'0 0.1
2017-Sep-08 12:59N 47°44' W 003°22'0 0.0
2017-Sep-08 12:30N 47°44' W 003°22'60 2.0
2017-Sep-07 07:04N 48°15' W 004°39'2 5.7
2017-Sep-07 06:46N 48°16' W 004°38'1 5.1
2017-Sep-07 06:30N 48°18' W 004°37'3 5.6
2017-Sep-07 06:00N 48°20' W 004°35'3 5.8
2017-Sep-07 05:27N 48°22' W 004°31'1 3.3
2017-Sep-07 05:00N 48°23' W 004°29'0 0.0
2017-Sep-06 13:17N 48°23' W 004°29'0 0.0
2017-Sep-06 12:59N 48°23' W 004°29'0 0.0
2017-Sep-06 12:29N 48°23' W 004°29'0 0.0
2017-Sep-06 11:59N 48°23' W 004°29'0 0.0
2017-Sep-06 11:29N 48°23' W 004°29'0 0.0
2017-Sep-06 10:59N 48°23' W 004°29'0 0.0
2017-Sep-06 10:29N 48°23' W 004°29'0 0.0
2017-Sep-06 09:59N 48°23' W 004°29'0 0.0
2017-Sep-06 09:29N 48°23' W 004°29'0 0.0
2017-Sep-04 13:18N 48°23' W 004°29'0 0.0
2017-Sep-04 13:00N 48°23' W 004°29'0 0.0
2017-Sep-04 12:30N 48°23' W 004°29'  
Track history (hours):
 
Tides and Currents Weather Stations Pressure Air Temp Water Temp Dewpoint Dewpoint Depression Visibility Wind Speed Wind Dir Waves Ship Positions

Alegria II

Last reported at 2017-Sep-13 13:24 UTC. Time now 2017-Sep-21 03:37 UTC.
Position N 47°36' W 002°50'.

Length 11 m.

Type: Sailing vessel. MMSI: 227203890.

Date/timePositionNaut miles runAvg speedWind from/ knotsBaromVisibWave heightAir tempDewpointWater temp
2017-Sep-13 13:24N 47°36' W 002°50'0 0.0
2017-Sep-13 13:00N 47°36' W 002°50'1 0.0
2017-Sep-12 18:21N 47°37' W 002°49'1 2.3
2017-Sep-12 17:59N 47°37' W 002°48'1 2.4
2017-Sep-12 17:30N 47°38' W 002°46'2 0.1
2017-Sep-11 08:52N 47°36' W 002°46'25 0.5
2017-Sep-09 09:55N 47°42' W 003°22'2 0.1
2017-Sep-08 14:34N 47°44' W 003°21'1 4.4
2017-Sep-08 14:27N 47°44' W 003°21'1 1.6
2017-Sep-08 13:59N 47°44' W 003°22'0 0.0
2017-Sep-08 13:31N 47°44' W 003°22'0 0.1
2017-Sep-08 12:59N 47°44' W 003°22'0 0.0
2017-Sep-08 12:30N 47°44' W 003°22'60 2.0
2017-Sep-07 07:04N 48°15' W 004°39'2 5.7
2017-Sep-07 06:46N 48°16' W 004°38'1 5.1
2017-Sep-07 06:30N 48°18' W 004°37'3 5.6
2017-Sep-07 06:00N 48°20' W 004°35'3 5.8
2017-Sep-07 05:27N 48°22' W 004°31'1 3.3
2017-Sep-07 05:00N 48°23' W 004°29'0 0.0
2017-Sep-06 13:17N 48°23' W 004°29'0 0.0
2017-Sep-06 12:59N 48°23' W 004°29'0 0.0
2017-Sep-06 12:29N 48°23' W 004°29'0 0.0
2017-Sep-06 11:59N 48°23' W 004°29'0 0.0
2017-Sep-06 11:29N 48°23' W 004°29'0 0.0
2017-Sep-06 10:59N 48°23' W 004°29'0 0.0
2017-Sep-06 10:29N 48°23' W 004°29'0 0.0
2017-Sep-06 09:59N 48°23' W 004°29'0 0.0
2017-Sep-06 09:29N 48°23' W 004°29'0 0.0
2017-Sep-04 13:18N 48°23' W 004°29'0 0.0
2017-Sep-04 13:00N 48°23' W 004°29'0 0.0
2017-Sep-04 12:30N 48°23' W 004°29'  

Dump ship's entire track history